sensor_id;sensor_type;location;lat;lon;timestamp;P1;durP1;ratioP1;P2;durP2;ratioP2
70985;SDS011;58645;43.068;25.610;2023-03-30T00:00:11;8.40;;;4.97;;
70985;SDS011;58645;43.068;25.610;2023-03-30T00:02:45;9.38;;;5.10;;
70985;SDS011;58645;43.068;25.610;2023-03-30T00:05:13;8.57;;;4.90;;
70985;SDS011;58645;43.068;25.610;2023-03-30T00:07:40;7.88;;;4.47;;
70985;SDS011;58645;43.068;25.610;2023-03-30T00:10:15;9.00;;;4.75;;
70985;SDS011;58645;43.068;25.610;2023-03-30T00:12:42;9.18;;;4.28;;
70985;SDS011;58645;43.068;25.610;2023-03-30T00:17:41;7.85;;;3.80;;
70985;SDS011;58645;43.068;25.610;2023-03-30T00:20:08;8.60;;;5.18;;
70985;SDS011;58645;43.068;25.610;2023-03-30T00:22:43;11.77;;;5.20;;
70985;SDS011;58645;43.068;25.610;2023-03-30T00:25:10;9.90;;;5.38;;
70985;SDS011;58645;43.068;25.610;2023-03-30T00:27:38;9.15;;;5.20;;
70985;SDS011;58645;43.068;25.610;2023-03-30T00:30:05;10.55;;;5.68;;
70985;SDS011;58645;43.068;25.610;2023-03-30T00:32:32;10.90;;;5.25;;
70985;SDS011;58645;43.068;25.610;2023-03-30T00:34:59;8.93;;;4.15;;
70985;SDS011;58645;43.068;25.610;2023-03-30T00:37:25;11.20;;;4.63;;
70985;SDS011;58645;43.068;25.610;2023-03-30T00:39:51;7.75;;;5.13;;
70985;SDS011;58645;43.068;25.610;2023-03-30T00:42:17;10.27;;;5.30;;
70985;SDS011;58645;43.068;25.610;2023-03-30T00:45:05;11.10;;;5.32;;
70985;SDS011;58645;43.068;25.610;2023-03-30T00:47:31;9.18;;;5.05;;
70985;SDS011;58645;43.068;25.610;2023-03-30T00:50:02;8.77;;;4.88;;
70985;SDS011;58645;43.068;25.610;2023-03-30T00:52:29;12.05;;;5.57;;
70985;SDS011;58645;43.068;25.610;2023-03-30T00:54:57;9.07;;;4.70;;
70985;SDS011;58645;43.068;25.610;2023-03-30T00:57:23;11.05;;;5.22;;
70985;SDS011;58645;43.068;25.610;2023-03-30T00:59:51;8.45;;;5.20;;
70985;SDS011;58645;43.068;25.610;2023-03-30T01:02:18;7.78;;;5.00;;
70985;SDS011;58645;43.068;25.610;2023-03-30T01:04:45;10.25;;;5.57;;
70985;SDS011;58645;43.068;25.610;2023-03-30T01:07:13;9.30;;;4.57;;
70985;SDS011;58645;43.068;25.610;2023-03-30T01:12:06;7.85;;;4.88;;
70985;SDS011;58645;43.068;25.610;2023-03-30T01:14:33;7.45;;;4.43;;
70985;SDS011;58645;43.068;25.610;2023-03-30T01:41:55;7.22;;;4.45;;
70985;SDS011;58645;43.068;25.610;2023-03-30T01:50:27;9.13;;;4.20;;
70985;SDS011;58645;43.068;25.610;2023-03-30T01:52:57;13.10;;;5.68;;
70985;SDS011;58645;43.068;25.610;2023-03-30T01:55:45;11.02;;;6.43;;
70985;SDS011;58645;43.068;25.610;2023-03-30T01:58:25;13.27;;;6.70;;
70985;SDS011;58645;43.068;25.610;2023-03-30T02:00:58;14.57;;;6.88;;
70985;SDS011;58645;43.068;25.610;2023-03-30T02:03:27;11.90;;;7.05;;
70985;SDS011;58645;43.068;25.610;2023-03-30T02:06:00;11.10;;;6.43;;
70985;SDS011;58645;43.068;25.610;2023-03-30T02:08:32;17.70;;;6.82;;
70985;SDS011;58645;43.068;25.610;2023-03-30T02:11:02;15.68;;;7.60;;
70985;SDS011;58645;43.068;25.610;2023-03-30T02:13:29;12.60;;;6.03;;
70985;SDS011;58645;43.068;25.610;2023-03-30T02:16:01;13.63;;;7.28;;
70985;SDS011;58645;43.068;25.610;2023-03-30T02:18:34;14.32;;;7.45;;
70985;SDS011;58645;43.068;25.610;2023-03-30T02:21:03;15.18;;;7.55;;
70985;SDS011;58645;43.068;25.610;2023-03-30T02:23:31;16.88;;;7.82;;
70985;SDS011;58645;43.068;25.610;2023-03-30T02:25:59;13.38;;;7.43;;
70985;SDS011;58645;43.068;25.610;2023-03-30T02:28:26;14.60;;;7.97;;
70985;SDS011;58645;43.068;25.610;2023-03-30T02:30:52;14.13;;;7.45;;
70985;SDS011;58645;43.068;25.610;2023-03-30T02:33:27;17.35;;;8.10;;
70985;SDS011;58645;43.068;25.610;2023-03-30T02:36:39;14.75;;;7.32;;
70985;SDS011;58645;43.068;25.610;2023-03-30T02:47:35;17.38;;;7.80;;
70985;SDS011;58645;43.068;25.610;2023-03-30T03:03:49;17.58;;;7.35;;
70985;SDS011;58645;43.068;25.610;2023-03-30T03:06:17;13.32;;;7.25;;
70985;SDS011;58645;43.068;25.610;2023-03-30T03:08:44;12.40;;;7.22;;
70985;SDS011;58645;43.068;25.610;2023-03-30T03:11:12;15.35;;;7.32;;
70985;SDS011;58645;43.068;25.610;2023-03-30T03:13:38;13.60;;;6.90;;
70985;SDS011;58645;43.068;25.610;2023-03-30T03:16:04;13.55;;;7.18;;
70985;SDS011;58645;43.068;25.610;2023-03-30T03:18:32;13.75;;;7.10;;
70985;SDS011;58645;43.068;25.610;2023-03-30T03:20:59;16.35;;;8.15;;
70985;SDS011;58645;43.068;25.610;2023-03-30T03:23:25;13.00;;;7.05;;
70985;SDS011;58645;43.068;25.610;2023-03-30T03:25:51;13.80;;;7.45;;
70985;SDS011;58645;43.068;25.610;2023-03-30T03:28:17;11.07;;;5.20;;
70985;SDS011;58645;43.068;25.610;2023-03-30T03:30:43;10.60;;;6.13;;
70985;SDS011;58645;43.068;25.610;2023-03-30T03:33:08;13.05;;;6.35;;
70985;SDS011;58645;43.068;25.610;2023-03-30T03:35:34;11.85;;;6.32;;
70985;SDS011;58645;43.068;25.610;2023-03-30T03:38:03;8.50;;;4.78;;
70985;SDS011;58645;43.068;25.610;2023-03-30T03:40:30;9.27;;;4.47;;
70985;SDS011;58645;43.068;25.610;2023-03-30T03:42:56;7.95;;;4.72;;
70985;SDS011;58645;43.068;25.610;2023-03-30T03:45:22;8.32;;;4.70;;
70985;SDS011;58645;43.068;25.610;2023-03-30T03:47:51;7.95;;;4.55;;
70985;SDS011;58645;43.068;25.610;2023-03-30T03:50:17;7.05;;;4.60;;
70985;SDS011;58645;43.068;25.610;2023-03-30T03:55:13;10.18;;;4.95;;
70985;SDS011;58645;43.068;25.610;2023-03-30T03:57:38;9.32;;;4.88;;
70985;SDS011;58645;43.068;25.610;2023-03-30T04:00:04;7.68;;;4.47;;
70985;SDS011;58645;43.068;25.610;2023-03-30T04:02:41;11.55;;;4.30;;
70985;SDS011;58645;43.068;25.610;2023-03-30T04:05:07;10.68;;;5.75;;
70985;SDS011;58645;43.068;25.610;2023-03-30T04:07:33;13.18;;;5.80;;
70985;SDS011;58645;43.068;25.610;2023-03-30T04:10:01;9.75;;;5.00;;
70985;SDS011;58645;43.068;25.610;2023-03-30T04:12:31;8.75;;;5.32;;
70985;SDS011;58645;43.068;25.610;2023-03-30T04:14:57;10.70;;;5.70;;
70985;SDS011;58645;43.068;25.610;2023-03-30T04:17:22;12.07;;;5.22;;
70985;SDS011;58645;43.068;25.610;2023-03-30T04:19:50;9.30;;;4.93;;
70985;SDS011;58645;43.068;25.610;2023-03-30T04:22:21;9.70;;;4.95;;
70985;SDS011;58645;43.068;25.610;2023-03-30T04:24:50;9.15;;;4.63;;
70985;SDS011;58645;43.068;25.610;2023-03-30T04:27:18;8.73;;;4.72;;
70985;SDS011;58645;43.068;25.610;2023-03-30T04:29:44;13.63;;;5.97;;
70985;SDS011;58645;43.068;25.610;2023-03-30T04:32:10;9.82;;;5.50;;
70985;SDS011;58645;43.068;25.610;2023-03-30T04:34:41;11.50;;;5.20;;
70985;SDS011;58645;43.068;25.610;2023-03-30T04:37:07;14.32;;;5.60;;
70985;SDS011;58645;43.068;25.610;2023-03-30T04:39:34;9.10;;;5.00;;
70985;SDS011;58645;43.068;25.610;2023-03-30T04:42:00;8.27;;;4.40;;
70985;SDS011;58645;43.068;25.610;2023-03-30T04:44:30;8.48;;;3.72;;
70985;SDS011;58645;43.068;25.610;2023-03-30T04:46:56;8.93;;;4.10;;
70985;SDS011;58645;43.068;25.610;2023-03-30T04:49:22;8.02;;;3.97;;
70985;SDS011;58645;43.068;25.610;2023-03-30T04:51:47;7.85;;;4.43;;
70985;SDS011;58645;43.068;25.610;2023-03-30T04:54:13;8.32;;;4.85;;
70985;SDS011;58645;43.068;25.610;2023-03-30T04:56:43;7.75;;;4.63;;
70985;SDS011;58645;43.068;25.610;2023-03-30T04:59:08;8.68;;;4.63;;
70985;SDS011;58645;43.068;25.610;2023-03-30T05:01:34;9.52;;;5.38;;
70985;SDS011;58645;43.068;25.610;2023-03-30T05:04:02;10.15;;;5.20;;
70985;SDS011;58645;43.068;25.610;2023-03-30T05:06:28;11.25;;;5.85;;
70985;SDS011;58645;43.068;25.610;2023-03-30T05:08:54;9.35;;;5.82;;
70985;SDS011;58645;43.068;25.610;2023-03-30T05:11:20;9.82;;;6.45;;
70985;SDS011;58645;43.068;25.610;2023-03-30T05:13:46;11.43;;;6.18;;
70985;SDS011;58645;43.068;25.610;2023-03-30T05:16:18;9.98;;;5.28;;
70985;SDS011;58645;43.068;25.610;2023-03-30T05:18:45;14.02;;;7.00;;
70985;SDS011;58645;43.068;25.610;2023-03-30T05:21:13;10.82;;;5.88;;
70985;SDS011;58645;43.068;25.610;2023-03-30T05:23:39;12.40;;;7.00;;
70985;SDS011;58645;43.068;25.610;2023-03-30T05:26:06;13.07;;;7.40;;
70985;SDS011;58645;43.068;25.610;2023-03-30T05:28:32;12.23;;;7.68;;
70985;SDS011;58645;43.068;25.610;2023-03-30T05:38:16;23.58;;;11.20;;
70985;SDS011;58645;43.068;25.610;2023-03-30T05:40:42;23.50;;;10.52;;
70985;SDS011;58645;43.068;25.610;2023-03-30T05:43:11;18.98;;;10.18;;
70985;SDS011;58645;43.068;25.610;2023-03-30T05:45:40;22.88;;;11.32;;
70985;SDS011;58645;43.068;25.610;2023-03-30T05:48:08;17.58;;;10.77;;
70985;SDS011;58645;43.068;25.610;2023-03-30T05:53:00;18.40;;;9.13;;
70985;SDS011;58645;43.068;25.610;2023-03-30T05:55:26;16.48;;;8.50;;
70985;SDS011;58645;43.068;25.610;2023-03-30T05:57:52;14.63;;;6.60;;
70985;SDS011;58645;43.068;25.610;2023-03-30T06:00:18;16.67;;;7.75;;
70985;SDS011;58645;43.068;25.610;2023-03-30T06:02:45;11.82;;;6.55;;
70985;SDS011;58645;43.068;25.610;2023-03-30T06:05:14;11.10;;;6.95;;
70985;SDS011;58645;43.068;25.610;2023-03-30T06:07:40;10.45;;;5.70;;
70985;SDS011;58645;43.068;25.610;2023-03-30T06:10:06;11.90;;;7.93;;
70985;SDS011;58645;43.068;25.610;2023-03-30T06:12:32;17.73;;;10.70;;
70985;SDS011;58645;43.068;25.610;2023-03-30T06:14:58;15.52;;;10.35;;
70985;SDS011;58645;43.068;25.610;2023-03-30T06:17:27;16.50;;;9.65;;
70985;SDS011;58645;43.068;25.610;2023-03-30T06:19:53;16.27;;;8.05;;
70985;SDS011;58645;43.068;25.610;2023-03-30T06:22:19;15.65;;;11.13;;
70985;SDS011;58645;43.068;25.610;2023-03-30T06:24:45;17.38;;;9.00;;
70985;SDS011;58645;43.068;25.610;2023-03-30T06:27:11;17.95;;;10.25;;
70985;SDS011;58645;43.068;25.610;2023-03-30T06:29:38;16.08;;;10.43;;
70985;SDS011;58645;43.068;25.610;2023-03-30T06:32:04;13.90;;;8.15;;
70985;SDS011;58645;43.068;25.610;2023-03-30T06:34:30;11.32;;;7.78;;
70985;SDS011;58645;43.068;25.610;2023-03-30T06:36:56;16.33;;;9.02;;
70985;SDS011;58645;43.068;25.610;2023-03-30T06:39:22;12.27;;;8.88;;
70985;SDS011;58645;43.068;25.610;2023-03-30T06:41:48;18.27;;;9.55;;
70985;SDS011;58645;43.068;25.610;2023-03-30T06:44:14;19.80;;;14.23;;
70985;SDS011;58645;43.068;25.610;2023-03-30T06:46:40;22.65;;;15.95;;
70985;SDS011;58645;43.068;25.610;2023-03-30T06:49:06;15.85;;;9.85;;
70985;SDS011;58645;43.068;25.610;2023-03-30T06:54:05;16.23;;;13.05;;
70985;SDS011;58645;43.068;25.610;2023-03-30T06:56:31;21.42;;;12.20;;
70985;SDS011;58645;43.068;25.610;2023-03-30T06:59:00;20.75;;;17.10;;
70985;SDS011;58645;43.068;25.610;2023-03-30T07:01:29;17.63;;;13.82;;
70985;SDS011;58645;43.068;25.610;2023-03-30T07:03:55;18.25;;;13.95;;
70985;SDS011;58645;43.068;25.610;2023-03-30T07:06:21;19.42;;;14.38;;
70985;SDS011;58645;43.068;25.610;2023-03-30T07:08:48;15.40;;;12.50;;
70985;SDS011;58645;43.068;25.610;2023-03-30T07:11:14;14.43;;;10.00;;
70985;SDS011;58645;43.068;25.610;2023-03-30T07:13:40;12.60;;;9.30;;
70985;SDS011;58645;43.068;25.610;2023-03-30T07:16:06;11.48;;;8.13;;
70985;SDS011;58645;43.068;25.610;2023-03-30T07:21:04;11.25;;;7.65;;
70985;SDS011;58645;43.068;25.610;2023-03-30T07:23:30;8.95;;;6.40;;
70985;SDS011;58645;43.068;25.610;2023-03-30T07:25:56;9.63;;;6.38;;
70985;SDS011;58645;43.068;25.610;2023-03-30T07:28:22;8.05;;;5.72;;
70985;SDS011;58645;43.068;25.610;2023-03-30T07:30:51;10.63;;;7.53;;
70985;SDS011;58645;43.068;25.610;2023-03-30T07:33:19;9.75;;;7.20;;
70985;SDS011;58645;43.068;25.610;2023-03-30T07:35:46;9.85;;;6.28;;
70985;SDS011;58645;43.068;25.610;2023-03-30T07:38:17;8.20;;;7.05;;
70985;SDS011;58645;43.068;25.610;2023-03-30T07:40:46;7.55;;;6.38;;
70985;SDS011;58645;43.068;25.610;2023-03-30T07:43:12;7.10;;;4.72;;
70985;SDS011;58645;43.068;25.610;2023-03-30T07:48:04;11.23;;;5.38;;
70985;SDS011;58645;43.068;25.610;2023-03-30T07:53:05;6.55;;;4.15;;
70985;SDS011;58645;43.068;25.610;2023-03-30T07:58:00;4.88;;;3.17;;
70985;SDS011;58645;43.068;25.610;2023-03-30T08:00:25;4.90;;;3.38;;
70985;SDS011;58645;43.068;25.610;2023-03-30T08:05:17;7.10;;;4.30;;
70985;SDS011;58645;43.068;25.610;2023-03-30T08:10:09;5.05;;;4.28;;
70985;SDS011;58645;43.068;25.610;2023-03-30T08:12:35;4.68;;;3.95;;
70985;SDS011;58645;43.068;25.610;2023-03-30T08:15:37;3.15;;;2.15;;
70985;SDS011;58645;43.068;25.610;2023-03-30T08:18:03;3.72;;;2.00;;
70985;SDS011;58645;43.068;25.610;2023-03-30T08:20:35;3.92;;;3.05;;
70985;SDS011;58645;43.068;25.610;2023-03-30T08:23:04;3.88;;;2.50;;
70985;SDS011;58645;43.068;25.610;2023-03-30T08:25:31;3.92;;;2.47;;
70985;SDS011;58645;43.068;25.610;2023-03-30T08:27:57;3.55;;;2.72;;
70985;SDS011;58645;43.068;25.610;2023-03-30T08:32:48;3.83;;;2.55;;
70985;SDS011;58645;43.068;25.610;2023-03-30T08:35:14;5.47;;;3.20;;
70985;SDS011;58645;43.068;25.610;2023-03-30T08:37:41;3.85;;;1.83;;
70985;SDS011;58645;43.068;25.610;2023-03-30T08:40:16;3.70;;;2.83;;
70985;SDS011;58645;43.068;25.610;2023-03-30T08:45:32;3.70;;;2.22;;
70985;SDS011;58645;43.068;25.610;2023-03-30T08:48:04;3.45;;;2.30;;
70985;SDS011;58645;43.068;25.610;2023-03-30T08:50:42;3.08;;;2.40;;
70985;SDS011;58645;43.068;25.610;2023-03-30T08:53:42;2.63;;;2.05;;
70985;SDS011;58645;43.068;25.610;2023-03-30T08:56:30;2.60;;;1.95;;
70985;SDS011;58645;43.068;25.610;2023-03-30T08:59:26;3.08;;;1.73;;
70985;SDS011;58645;43.068;25.610;2023-03-30T09:02:47;3.38;;;2.38;;
70985;SDS011;58645;43.068;25.610;2023-03-30T09:04:58;4.15;;;2.45;;
70985;SDS011;58645;43.068;25.610;2023-03-30T09:10:56;3.35;;;2.13;;
70985;SDS011;58645;43.068;25.610;2023-03-30T09:16:19;2.53;;;1.60;;
70985;SDS011;58645;43.068;25.610;2023-03-30T09:19:10;2.90;;;2.20;;
70985;SDS011;58645;43.068;25.610;2023-03-30T09:21:44;2.35;;;1.52;;
70985;SDS011;58645;43.068;25.610;2023-03-30T09:24:17;3.30;;;2.17;;
70985;SDS011;58645;43.068;25.610;2023-03-30T09:26:58;3.28;;;1.75;;
70985;SDS011;58645;43.068;25.610;2023-03-30T09:29:45;2.60;;;1.55;;
70985;SDS011;58645;43.068;25.610;2023-03-30T09:35:13;3.70;;;2.05;;
70985;SDS011;58645;43.068;25.610;2023-03-30T09:37:49;2.40;;;1.42;;
70985;SDS011;58645;43.068;25.610;2023-03-30T09:40:22;3.58;;;1.90;;
70985;SDS011;58645;43.068;25.610;2023-03-30T09:45:43;5.03;;;2.40;;
70985;SDS011;58645;43.068;25.610;2023-03-30T09:48:16;3.20;;;2.25;;
70985;SDS011;58645;43.068;25.610;2023-03-30T09:50:45;4.47;;;2.10;;
70985;SDS011;58645;43.068;25.610;2023-03-30T09:53:24;3.03;;;1.40;;
70985;SDS011;58645;43.068;25.610;2023-03-30T09:58:46;2.95;;;1.83;;
70985;SDS011;58645;43.068;25.610;2023-03-30T10:01:17;2.40;;;1.88;;
70985;SDS011;58645;43.068;25.610;2023-03-30T10:04:04;4.43;;;1.95;;
70985;SDS011;58645;43.068;25.610;2023-03-30T10:06:34;3.85;;;2.25;;
70985;SDS011;58645;43.068;25.610;2023-03-30T10:09:11;2.97;;;2.17;;
70985;SDS011;58645;43.068;25.610;2023-03-30T10:11:42;2.92;;;2.10;;
70985;SDS011;58645;43.068;25.610;2023-03-30T10:14:52;1.90;;;1.40;;
70985;SDS011;58645;43.068;25.610;2023-03-30T10:17:02;1.98;;;1.70;;
70985;SDS011;58645;43.068;25.610;2023-03-30T10:19:31;2.13;;;1.65;;
70985;SDS011;58645;43.068;25.610;2023-03-30T10:21:59;2.60;;;1.20;;
70985;SDS011;58645;43.068;25.610;2023-03-30T10:24:29;1.80;;;1.42;;
70985;SDS011;58645;43.068;25.610;2023-03-30T10:27:01;2.97;;;1.33;;
70985;SDS011;58645;43.068;25.610;2023-03-30T10:29:36;2.42;;;1.65;;
70985;SDS011;58645;43.068;25.610;2023-03-30T10:32:19;3.42;;;1.30;;
70985;SDS011;58645;43.068;25.610;2023-03-30T10:34:58;1.85;;;1.52;;
70985;SDS011;58645;43.068;25.610;2023-03-30T10:37:42;1.83;;;1.50;;
70985;SDS011;58645;43.068;25.610;2023-03-30T10:40:16;3.60;;;1.20;;
70985;SDS011;58645;43.068;25.610;2023-03-30T10:42:42;2.72;;;1.63;;
70985;SDS011;58645;43.068;25.610;2023-03-30T10:45:15;2.80;;;1.77;;
70985;SDS011;58645;43.068;25.610;2023-03-30T11:04:17;4.80;;;1.40;;
70985;SDS011;58645;43.068;25.610;2023-03-30T11:06:50;1.50;;;1.30;;
70985;SDS011;58645;43.068;25.610;2023-03-30T11:09:24;2.15;;;1.10;;
70985;SDS011;58645;43.068;25.610;2023-03-30T11:11:55;3.72;;;1.42;;
70985;SDS011;58645;43.068;25.610;2023-03-30T11:14:50;2.00;;;0.93;;
70985;SDS011;58645;43.068;25.610;2023-03-30T11:17:28;1.25;;;0.80;;
70985;SDS011;58645;43.068;25.610;2023-03-30T11:20:23;3.83;;;1.02;;
70985;SDS011;58645;43.068;25.610;2023-03-30T11:23:04;1.67;;;1.10;;
70985;SDS011;58645;43.068;25.610;2023-03-30T11:26:03;1.50;;;0.95;;
70985;SDS011;58645;43.068;25.610;2023-03-30T11:28:58;2.80;;;1.17;;
70985;SDS011;58645;43.068;25.610;2023-03-30T11:31:38;1.25;;;0.90;;
70985;SDS011;58645;43.068;25.610;2023-03-30T11:34:23;2.95;;;1.30;;
70985;SDS011;58645;43.068;25.610;2023-03-30T11:39:28;1.30;;;1.02;;
70985;SDS011;58645;43.068;25.610;2023-03-30T11:44:38;2.15;;;1.45;;
70985;SDS011;58645;43.068;25.610;2023-03-30T11:55:21;1.50;;;0.90;;
70985;SDS011;58645;43.068;25.610;2023-03-30T12:11:34;1.80;;;1.17;;
70985;SDS011;58645;43.068;25.610;2023-03-30T12:17:05;2.10;;;1.27;;
70985;SDS011;58645;43.068;25.610;2023-03-30T12:19:42;2.15;;;1.00;;
70985;SDS011;58645;43.068;25.610;2023-03-30T12:22:14;2.08;;;1.33;;
70985;SDS011;58645;43.068;25.610;2023-03-30T12:24:56;2.15;;;1.33;;
70985;SDS011;58645;43.068;25.610;2023-03-30T12:27:50;2.30;;;1.20;;
70985;SDS011;58645;43.068;25.610;2023-03-30T12:30:24;1.80;;;1.40;;
70985;SDS011;58645;43.068;25.610;2023-03-30T12:32:58;1.40;;;0.93;;
70985;SDS011;58645;43.068;25.610;2023-03-30T12:35:50;3.50;;;1.70;;
70985;SDS011;58645;43.068;25.610;2023-03-30T12:38:25;1.77;;;1.55;;
70985;SDS011;58645;43.068;25.610;2023-03-30T12:46:37;3.00;;;1.33;;
70985;SDS011;58645;43.068;25.610;2023-03-30T12:52:10;1.98;;;1.08;;
70985;SDS011;58645;43.068;25.610;2023-03-30T12:54:54;2.35;;;1.67;;
70985;SDS011;58645;43.068;25.610;2023-03-30T12:57:54;2.20;;;1.33;;
70985;SDS011;58645;43.068;25.610;2023-03-30T13:00:41;1.98;;;1.08;;
70985;SDS011;58645;43.068;25.610;2023-03-30T13:03:22;4.18;;;1.63;;
70985;SDS011;58645;43.068;25.610;2023-03-30T13:05:56;3.47;;;1.30;;
70985;SDS011;58645;43.068;25.610;2023-03-30T13:08:33;2.90;;;1.75;;
70985;SDS011;58645;43.068;25.610;2023-03-30T13:13:46;2.47;;;1.10;;
70985;SDS011;58645;43.068;25.610;2023-03-30T13:29:54;3.28;;;2.00;;
70985;SDS011;58645;43.068;25.610;2023-03-30T13:35:47;3.92;;;2.00;;
70985;SDS011;58645;43.068;25.610;2023-03-30T13:46:34;2.35;;;1.92;;
70985;SDS011;58645;43.068;25.610;2023-03-30T13:49:18;1.90;;;1.50;;
70985;SDS011;58645;43.068;25.610;2023-03-30T13:51:51;2.25;;;1.33;;
70985;SDS011;58645;43.068;25.610;2023-03-30T13:54:25;2.35;;;1.75;;
70985;SDS011;58645;43.068;25.610;2023-03-30T13:56:58;3.50;;;2.05;;
70985;SDS011;58645;43.068;25.610;2023-03-30T13:59:32;2.45;;;1.73;;
70985;SDS011;58645;43.068;25.610;2023-03-30T14:02:01;4.47;;;1.95;;
70985;SDS011;58645;43.068;25.610;2023-03-30T14:04:32;2.83;;;1.75;;
70985;SDS011;58645;43.068;25.610;2023-03-30T14:07:06;3.33;;;2.08;;
70985;SDS011;58645;43.068;25.610;2023-03-30T14:09:41;3.25;;;1.83;;
70985;SDS011;58645;43.068;25.610;2023-03-30T14:12:07;2.67;;;1.77;;
70985;SDS011;58645;43.068;25.610;2023-03-30T14:14:38;3.13;;;1.70;;
70985;SDS011;58645;43.068;25.610;2023-03-30T14:17:12;2.20;;;1.90;;
70985;SDS011;58645;43.068;25.610;2023-03-30T14:22:40;2.55;;;2.10;;
70985;SDS011;58645;43.068;25.610;2023-03-30T14:25:33;3.33;;;2.15;;
70985;SDS011;58645;43.068;25.610;2023-03-30T14:28:10;4.38;;;1.95;;
70985;SDS011;58645;43.068;25.610;2023-03-30T14:30:46;3.17;;;1.80;;
70985;SDS011;58645;43.068;25.610;2023-03-30T14:33:16;3.22;;;1.70;;
70985;SDS011;58645;43.068;25.610;2023-03-30T14:35:46;3.65;;;2.10;;
70985;SDS011;58645;43.068;25.610;2023-03-30T14:41:12;3.53;;;1.52;;
70985;SDS011;58645;43.068;25.610;2023-03-30T14:43:41;3.13;;;1.52;;
70985;SDS011;58645;43.068;25.610;2023-03-30T14:46:51;3.38;;;1.70;;
70985;SDS011;58645;43.068;25.610;2023-03-30T14:49:17;3.03;;;2.08;;
70985;SDS011;58645;43.068;25.610;2023-03-30T14:51:47;2.60;;;1.80;;
70985;SDS011;58645;43.068;25.610;2023-03-30T14:54:16;2.10;;;1.38;;
70985;SDS011;58645;43.068;25.610;2023-03-30T14:56:49;2.97;;;1.63;;
70985;SDS011;58645;43.068;25.610;2023-03-30T14:59:21;2.75;;;1.70;;
70985;SDS011;58645;43.068;25.610;2023-03-30T15:01:48;3.55;;;2.00;;
70985;SDS011;58645;43.068;25.610;2023-03-30T15:04:15;2.78;;;1.80;;
70985;SDS011;58645;43.068;25.610;2023-03-30T15:06:43;2.53;;;1.67;;
70985;SDS011;58645;43.068;25.610;2023-03-30T15:09:18;2.60;;;1.70;;
70985;SDS011;58645;43.068;25.610;2023-03-30T15:11:48;2.30;;;1.23;;
70985;SDS011;58645;43.068;25.610;2023-03-30T15:14:20;2.83;;;1.70;;
70985;SDS011;58645;43.068;25.610;2023-03-30T15:16:47;2.55;;;1.63;;
70985;SDS011;58645;43.068;25.610;2023-03-30T15:19:28;2.45;;;1.52;;
70985;SDS011;58645;43.068;25.610;2023-03-30T15:21:56;4.82;;;2.08;;
70985;SDS011;58645;43.068;25.610;2023-03-30T15:24:25;3.20;;;2.03;;
70985;SDS011;58645;43.068;25.610;2023-03-30T15:26:55;3.45;;;1.92;;
70985;SDS011;58645;43.068;25.610;2023-03-30T15:29:22;3.65;;;1.88;;
70985;SDS011;58645;43.068;25.610;2023-03-30T15:34:30;3.60;;;1.90;;
70985;SDS011;58645;43.068;25.610;2023-03-30T15:36:56;3.05;;;1.77;;
70985;SDS011;58645;43.068;25.610;2023-03-30T15:39:26;2.85;;;1.80;;
70985;SDS011;58645;43.068;25.610;2023-03-30T15:44:37;2.88;;;1.75;;
70985;SDS011;58645;43.068;25.610;2023-03-30T15:47:13;2.75;;;1.75;;
70985;SDS011;58645;43.068;25.610;2023-03-30T15:49:47;2.58;;;1.45;;
70985;SDS011;58645;43.068;25.610;2023-03-30T15:52:18;3.20;;;1.38;;
70985;SDS011;58645;43.068;25.610;2023-03-30T15:54:52;2.60;;;1.55;;
70985;SDS011;58645;43.068;25.610;2023-03-30T15:57:23;3.28;;;1.70;;
70985;SDS011;58645;43.068;25.610;2023-03-30T15:59:56;3.85;;;1.92;;
70985;SDS011;58645;43.068;25.610;2023-03-30T16:02:45;5.22;;;2.50;;
70985;SDS011;58645;43.068;25.610;2023-03-30T16:05:22;5.00;;;2.40;;
70985;SDS011;58645;43.068;25.610;2023-03-30T16:07:49;8.52;;;2.95;;
70985;SDS011;58645;43.068;25.610;2023-03-30T16:10:16;3.97;;;2.10;;
70985;SDS011;58645;43.068;25.610;2023-03-30T16:12:48;5.53;;;2.95;;
70985;SDS011;58645;43.068;25.610;2023-03-30T16:15:17;3.55;;;2.65;;
70985;SDS011;58645;43.068;25.610;2023-03-30T16:17:48;3.28;;;2.38;;
70985;SDS011;58645;43.068;25.610;2023-03-30T16:20:18;4.38;;;2.40;;
70985;SDS011;58645;43.068;25.610;2023-03-30T16:22:47;7.13;;;3.78;;
70985;SDS011;58645;43.068;25.610;2023-03-30T16:25:14;7.30;;;4.55;;
70985;SDS011;58645;43.068;25.610;2023-03-30T16:27:40;9.32;;;5.30;;
70985;SDS011;58645;43.068;25.610;2023-03-30T16:30:14;7.32;;;4.68;;
70985;SDS011;58645;43.068;25.610;2023-03-30T16:32:45;8.95;;;5.07;;
70985;SDS011;58645;43.068;25.610;2023-03-30T16:35:10;7.90;;;3.75;;
70985;SDS011;58645;43.068;25.610;2023-03-30T16:37:36;5.72;;;3.15;;
70985;SDS011;58645;43.068;25.610;2023-03-30T16:42:38;4.75;;;3.25;;
70985;SDS011;58645;43.068;25.610;2023-03-30T16:45:04;5.38;;;3.22;;
70985;SDS011;58645;43.068;25.610;2023-03-30T16:47:30;5.13;;;3.05;;
70985;SDS011;58645;43.068;25.610;2023-03-30T16:49:56;4.97;;;3.15;;
70985;SDS011;58645;43.068;25.610;2023-03-30T16:52:22;3.97;;;2.72;;
70985;SDS011;58645;43.068;25.610;2023-03-30T16:54:48;4.07;;;2.65;;
70985;SDS011;58645;43.068;25.610;2023-03-30T16:57:14;4.50;;;2.97;;
70985;SDS011;58645;43.068;25.610;2023-03-30T16:59:40;6.50;;;4.13;;
70985;SDS011;58645;43.068;25.610;2023-03-30T17:02:08;5.43;;;3.70;;
70985;SDS011;58645;43.068;25.610;2023-03-30T17:04:35;6.68;;;4.25;;
70985;SDS011;58645;43.068;25.610;2023-03-30T17:07:01;6.03;;;3.15;;
70985;SDS011;58645;43.068;25.610;2023-03-30T17:09:27;10.45;;;3.03;;
70985;SDS011;58645;43.068;25.610;2023-03-30T17:14:19;6.88;;;4.00;;
70985;SDS011;58645;43.068;25.610;2023-03-30T17:16:47;9.15;;;5.03;;
70985;SDS011;58645;43.068;25.610;2023-03-30T17:19:13;11.77;;;7.32;;
70985;SDS011;58645;43.068;25.610;2023-03-30T17:21:39;16.15;;;9.77;;
70985;SDS011;58645;43.068;25.610;2023-03-30T17:24:07;14.70;;;9.63;;
70985;SDS011;58645;43.068;25.610;2023-03-30T17:28:59;11.48;;;6.28;;
70985;SDS011;58645;43.068;25.610;2023-03-30T17:31:25;12.52;;;6.93;;
70985;SDS011;58645;43.068;25.610;2023-03-30T17:33:51;13.25;;;7.78;;
70985;SDS011;58645;43.068;25.610;2023-03-30T17:36:23;12.38;;;7.82;;
70985;SDS011;58645;43.068;25.610;2023-03-30T17:38:50;13.65;;;8.40;;
70985;SDS011;58645;43.068;25.610;2023-03-30T17:41:17;14.35;;;8.20;;
70985;SDS011;58645;43.068;25.610;2023-03-30T17:43:43;20.63;;;10.93;;
70985;SDS011;58645;43.068;25.610;2023-03-30T17:46:11;15.52;;;9.10;;
70985;SDS011;58645;43.068;25.610;2023-03-30T17:48:38;16.52;;;11.50;;
70985;SDS011;58645;43.068;25.610;2023-03-30T17:51:04;14.43;;;8.25;;
70985;SDS011;58645;43.068;25.610;2023-03-30T17:53:30;13.48;;;8.05;;
70985;SDS011;58645;43.068;25.610;2023-03-30T17:55:56;11.73;;;7.18;;
70985;SDS011;58645;43.068;25.610;2023-03-30T17:58:29;13.68;;;7.28;;
70985;SDS011;58645;43.068;25.610;2023-03-30T18:00:59;19.05;;;10.35;;
70985;SDS011;58645;43.068;25.610;2023-03-30T18:03:25;16.63;;;9.98;;
70985;SDS011;58645;43.068;25.610;2023-03-30T18:05:54;14.90;;;8.65;;
70985;SDS011;58645;43.068;25.610;2023-03-30T18:08:21;13.23;;;7.45;;
70985;SDS011;58645;43.068;25.610;2023-03-30T18:10:52;22.23;;;12.35;;
70985;SDS011;58645;43.068;25.610;2023-03-30T18:13:22;17.17;;;9.15;;
70985;SDS011;58645;43.068;25.610;2023-03-30T18:15:50;20.17;;;9.77;;
70985;SDS011;58645;43.068;25.610;2023-03-30T18:18:19;13.88;;;7.93;;